sensor_id;sensor_type;location;lat;lon;timestamp;temperature;humidity
41630;DHT22;27322;49.488;8.480;2022-10-17T00:01:48;15.80;99.90
41630;DHT22;27322;49.488;8.480;2022-10-17T00:04:14;15.80;99.90
41630;DHT22;27322;49.488;8.480;2022-10-17T00:06:39;15.80;99.90
41630;DHT22;27322;49.488;8.480;2022-10-17T00:09:05;15.80;99.90
41630;DHT22;27322;49.488;8.480;2022-10-17T00:11:31;15.80;99.90
41630;DHT22;27322;49.488;8.480;2022-10-17T00:13:56;15.80;99.90
41630;DHT22;27322;49.488;8.480;2022-10-17T00:16:30;15.80;99.90
41630;DHT22;27322;49.488;8.480;2022-10-17T00:18:58;15.80;99.90
41630;DHT22;27322;49.488;8.480;2022-10-17T00:21:24;15.80;99.90
41630;DHT22;27322;49.488;8.480;2022-10-17T00:23:50;15.80;99.90
41630;DHT22;27322;49.488;8.480;2022-10-17T00:26:16;15.80;99.90
41630;DHT22;27322;49.488;8.480;2022-10-17T00:28:45;15.80;99.90
41630;DHT22;27322;49.488;8.480;2022-10-17T00:31:12;15.80;99.90
41630;DHT22;27322;49.488;8.480;2022-10-17T00:33:37;15.80;99.90
41630;DHT22;27322;49.488;8.480;2022-10-17T00:36:18;15.80;99.90
41630;DHT22;27322;49.488;8.480;2022-10-17T00:38:46;15.80;99.90
41630;DHT22;27322;49.488;8.480;2022-10-17T00:41:14;15.70;99.90
41630;DHT22;27322;49.488;8.480;2022-10-17T00:46:26;15.80;99.90
41630;DHT22;27322;49.488;8.480;2022-10-17T00:48:54;15.70;99.90
41630;DHT22;27322;49.488;8.480;2022-10-17T00:51:24;15.70;99.90
41630;DHT22;27322;49.488;8.480;2022-10-17T00:53:52;15.70;99.90
41630;DHT22;27322;49.488;8.480;2022-10-17T00:56:19;15.70;99.90
41630;DHT22;27322;49.488;8.480;2022-10-17T00:58:46;15.70;99.90
41630;DHT22;27322;49.488;8.480;2022-10-17T01:01:12;15.70;99.90
41630;DHT22;27322;49.488;8.480;2022-10-17T01:03:37;15.70;99.90
41630;DHT22;27322;49.488;8.480;2022-10-17T01:06:03;15.70;99.90
41630;DHT22;27322;49.488;8.480;2022-10-17T01:08:29;15.60;99.90
41630;DHT22;27322;49.488;8.480;2022-10-17T01:17:08;15.60;99.90
41630;DHT22;27322;49.488;8.480;2022-10-17T01:19:50;15.60;99.90
41630;DHT22;27322;49.488;8.480;2022-10-17T01:22:25;15.60;99.90
41630;DHT22;27322;49.488;8.480;2022-10-17T01:27:52;15.60;99.90
41630;DHT22;27322;49.488;8.480;2022-10-17T01:35:51;15.60;99.90
41630;DHT22;27322;49.488;8.480;2022-10-17T01:38:25;15.60;99.90
41630;DHT22;27322;49.488;8.480;2022-10-17T01:41:10;15.60;99.90
41630;DHT22;27322;49.488;8.480;2022-10-17T01:43:42;15.60;99.90
41630;DHT22;27322;49.488;8.480;2022-10-17T01:46:21;15.60;99.90
41630;DHT22;27322;49.488;8.480;2022-10-17T01:48:49;15.60;99.90
41630;DHT22;27322;49.488;8.480;2022-10-17T01:51:26;15.70;99.90
41630;DHT22;27322;49.488;8.480;2022-10-17T01:54:13;15.70;99.90
41630;DHT22;27322;49.488;8.480;2022-10-17T01:56:40;15.70;99.90
41630;DHT22;27322;49.488;8.480;2022-10-17T01:59:16;15.70;99.90
41630;DHT22;27322;49.488;8.480;2022-10-17T02:01:48;15.70;99.90
41630;DHT22;27322;49.488;8.480;2022-10-17T02:04:15;15.80;99.90
41630;DHT22;27322;49.488;8.480;2022-10-17T02:06:40;15.80;99.90
41630;DHT22;27322;49.488;8.480;2022-10-17T02:09:17;15.80;99.90
41630;DHT22;27322;49.488;8.480;2022-10-17T02:17:44;15.70;99.90
41630;DHT22;27322;49.488;8.480;2022-10-17T02:25:37;15.70;99.90
41630;DHT22;27322;49.488;8.480;2022-10-17T02:33:25;15.60;99.90
41630;DHT22;27322;49.488;8.480;2022-10-17T02:35:54;15.60;99.90
41630;DHT22;27322;49.488;8.480;2022-10-17T02:38:23;15.60;99.90
41630;DHT22;27322;49.488;8.480;2022-10-17T02:40:50;15.60;99.90
41630;DHT22;27322;49.488;8.480;2022-10-17T02:43:18;15.60;99.90
41630;DHT22;27322;49.488;8.480;2022-10-17T02:45:44;15.60;99.90
41630;DHT22;27322;49.488;8.480;2022-10-17T02:56:31;15.70;99.90
41630;DHT22;27322;49.488;8.480;2022-10-17T02:59:00;15.60;99.90
41630;DHT22;27322;49.488;8.480;2022-10-17T03:01:29;15.60;99.90
41630;DHT22;27322;49.488;8.480;2022-10-17T03:04:06;15.60;99.90
41630;DHT22;27322;49.488;8.480;2022-10-17T03:06:32;15.50;99.90
41630;DHT22;27322;49.488;8.480;2022-10-17T03:08:57;15.50;99.90
41630;DHT22;27322;49.488;8.480;2022-10-17T03:11:23;15.50;99.90
41630;DHT22;27322;49.488;8.480;2022-10-17T03:13:48;15.50;99.90
41630;DHT22;27322;49.488;8.480;2022-10-17T03:16:14;15.50;99.90
41630;DHT22;27322;49.488;8.480;2022-10-17T03:18:39;15.50;99.90
41630;DHT22;27322;49.488;8.480;2022-10-17T03:21:05;15.50;99.90
41630;DHT22;27322;49.488;8.480;2022-10-17T03:23:30;15.50;99.90
41630;DHT22;27322;49.488;8.480;2022-10-17T03:25:56;15.40;99.90
41630;DHT22;27322;49.488;8.480;2022-10-17T03:28:22;15.40;99.90
41630;DHT22;27322;49.488;8.480;2022-10-17T03:30:47;15.40;99.90
41630;DHT22;27322;49.488;8.480;2022-10-17T03:33:13;15.40;99.90
41630;DHT22;27322;49.488;8.480;2022-10-17T03:35:38;15.40;99.90
41630;DHT22;27322;49.488;8.480;2022-10-17T03:38:06;15.40;99.90
41630;DHT22;27322;49.488;8.480;2022-10-17T03:40:32;15.40;99.90
41630;DHT22;27322;49.488;8.480;2022-10-17T03:42:58;15.40;99.90
41630;DHT22;27322;49.488;8.480;2022-10-17T03:45:23;15.40;99.90
41630;DHT22;27322;49.488;8.480;2022-10-17T03:47:49;15.40;99.90
41630;DHT22;27322;49.488;8.480;2022-10-17T03:50:14;15.40;99.90
41630;DHT22;27322;49.488;8.480;2022-10-17T03:52:40;15.40;99.90
41630;DHT22;27322;49.488;8.480;2022-10-17T03:55:06;15.40;99.90
41630;DHT22;27322;49.488;8.480;2022-10-17T03:57:34;15.40;99.90
41630;DHT22;27322;49.488;8.480;2022-10-17T04:00:00;15.40;99.90
41630;DHT22;27322;49.488;8.480;2022-10-17T04:02:25;15.40;99.90
41630;DHT22;27322;49.488;8.480;2022-10-17T04:04:51;15.40;99.90
41630;DHT22;27322;49.488;8.480;2022-10-17T04:07:16;15.40;99.90
41630;DHT22;27322;49.488;8.480;2022-10-17T04:09:42;15.40;99.90
41630;DHT22;27322;49.488;8.480;2022-10-17T04:12:08;15.40;99.90
41630;DHT22;27322;49.488;8.480;2022-10-17T04:14:33;15.90;99.90
41630;DHT22;27322;49.488;8.480;2022-10-17T04:16:59;16.30;99.90
41630;DHT22;27322;49.488;8.480;2022-10-17T04:19:24;16.60;99.90
41630;DHT22;27322;49.488;8.480;2022-10-17T04:21:50;16.80;99.90
41630;DHT22;27322;49.488;8.480;2022-10-17T04:24:16;16.90;99.90
41630;DHT22;27322;49.488;8.480;2022-10-17T04:26:41;17.10;99.90
41630;DHT22;27322;49.488;8.480;2022-10-17T04:29:07;17.20;99.90
41630;DHT22;27322;49.488;8.480;2022-10-17T04:31:32;17.30;99.90
41630;DHT22;27322;49.488;8.480;2022-10-17T04:33:58;17.40;99.90
41630;DHT22;27322;49.488;8.480;2022-10-17T04:36:24;17.40;99.90
41630;DHT22;27322;49.488;8.480;2022-10-17T04:38:49;17.40;99.90
41630;DHT22;27322;49.488;8.480;2022-10-17T04:41:16;17.40;99.90
41630;DHT22;27322;49.488;8.480;2022-10-17T04:43:43;17.50;99.90
41630;DHT22;27322;49.488;8.480;2022-10-17T04:46:11;17.60;99.90
41630;DHT22;27322;49.488;8.480;2022-10-17T04:48:37;17.60;99.90
41630;DHT22;27322;49.488;8.480;2022-10-17T04:51:15;17.50;99.90
41630;DHT22;27322;49.488;8.480;2022-10-17T04:53:42;17.50;99.90
41630;DHT22;27322;49.488;8.480;2022-10-17T04:56:19;17.60;99.90
41630;DHT22;27322;49.488;8.480;2022-10-17T04:58:46;17.60;99.90
41630;DHT22;27322;49.488;8.480;2022-10-17T05:01:20;17.50;99.90
41630;DHT22;27322;49.488;8.480;2022-10-17T05:03:46;17.50;99.90
41630;DHT22;27322;49.488;8.480;2022-10-17T05:06:20;17.60;99.90
41630;DHT22;27322;49.488;8.480;2022-10-17T05:08:46;17.70;99.90
41630;DHT22;27322;49.488;8.480;2022-10-17T05:13:52;17.80;99.90
41630;DHT22;27322;49.488;8.480;2022-10-17T05:16:19;17.60;99.90
41630;DHT22;27322;49.488;8.480;2022-10-17T05:18:50;17.60;99.90
41630;DHT22;27322;49.488;8.480;2022-10-17T05:21:17;17.60;99.90
41630;DHT22;27322;49.488;8.480;2022-10-17T05:23:43;17.60;99.90
41630;DHT22;27322;49.488;8.480;2022-10-17T05:26:09;17.50;99.90
41630;DHT22;27322;49.488;8.480;2022-10-17T05:28:35;17.40;99.90
41630;DHT22;27322;49.488;8.480;2022-10-17T05:31:05;17.20;99.90
41630;DHT22;27322;49.488;8.480;2022-10-17T05:33:32;17.10;99.90
41630;DHT22;27322;49.488;8.480;2022-10-17T05:35:57;16.90;99.90
41630;DHT22;27322;49.488;8.480;2022-10-17T05:38:23;16.90;99.90
41630;DHT22;27322;49.488;8.480;2022-10-17T05:40:49;16.80;99.90
41630;DHT22;27322;49.488;8.480;2022-10-17T05:43:14;16.90;99.90
41630;DHT22;27322;49.488;8.480;2022-10-17T05:45:40;16.80;99.90
41630;DHT22;27322;49.488;8.480;2022-10-17T05:48:06;16.70;99.90
41630;DHT22;27322;49.488;8.480;2022-10-17T05:50:34;16.70;99.90
41630;DHT22;27322;49.488;8.480;2022-10-17T05:52:59;16.70;99.90
41630;DHT22;27322;49.488;8.480;2022-10-17T05:55:25;16.70;99.90
41630;DHT22;27322;49.488;8.480;2022-10-17T05:57:51;16.70;99.90
41630;DHT22;27322;49.488;8.480;2022-10-17T06:00:19;16.70;99.90
41630;DHT22;27322;49.488;8.480;2022-10-17T06:02:45;16.70;99.90
41630;DHT22;27322;49.488;8.480;2022-10-17T06:05:11;16.80;99.90
41630;DHT22;27322;49.488;8.480;2022-10-17T06:07:36;16.90;99.90
41630;DHT22;27322;49.488;8.480;2022-10-17T06:10:02;16.80;99.90
41630;DHT22;27322;49.488;8.480;2022-10-17T06:12:31;16.90;99.90
41630;DHT22;27322;49.488;8.480;2022-10-17T06:14:56;16.90;99.90
41630;DHT22;27322;49.488;8.480;2022-10-17T06:17:22;16.90;99.90
41630;DHT22;27322;49.488;8.480;2022-10-17T06:19:47;17.00;99.90
41630;DHT22;27322;49.488;8.480;2022-10-17T06:22:13;17.00;99.90
41630;DHT22;27322;49.488;8.480;2022-10-17T06:24:40;17.00;99.90
41630;DHT22;27322;49.488;8.480;2022-10-17T06:27:05;16.80;99.90
41630;DHT22;27322;49.488;8.480;2022-10-17T06:29:31;16.50;99.90
41630;DHT22;27322;49.488;8.480;2022-10-17T06:31:57;16.30;99.90
41630;DHT22;27322;49.488;8.480;2022-10-17T06:34:22;16.10;99.90
41630;DHT22;27322;49.488;8.480;2022-10-17T06:36:48;15.90;99.90
41630;DHT22;27322;49.488;8.480;2022-10-17T06:39:13;15.70;99.90
41630;DHT22;27322;49.488;8.480;2022-10-17T06:41:39;15.80;99.90
41630;DHT22;27322;49.488;8.480;2022-10-17T06:44:06;15.90;99.90
41630;DHT22;27322;49.488;8.480;2022-10-17T06:46:40;15.90;99.90
41630;DHT22;27322;49.488;8.480;2022-10-17T06:49:06;15.80;99.90
41630;DHT22;27322;49.488;8.480;2022-10-17T06:51:36;15.70;99.90
41630;DHT22;27322;49.488;8.480;2022-10-17T06:54:02;15.70;99.90
41630;DHT22;27322;49.488;8.480;2022-10-17T06:56:28;15.60;99.90
41630;DHT22;27322;49.488;8.480;2022-10-17T06:58:53;15.60;99.90
41630;DHT22;27322;49.488;8.480;2022-10-17T07:01:19;15.60;99.90
41630;DHT22;27322;49.488;8.480;2022-10-17T07:03:47;15.80;99.90
41630;DHT22;27322;49.488;8.480;2022-10-17T07:06:13;16.10;99.90
41630;DHT22;27322;49.488;8.480;2022-10-17T07:08:43;16.20;99.90
41630;DHT22;27322;49.488;8.480;2022-10-17T07:11:14;16.20;99.90
41630;DHT22;27322;49.488;8.480;2022-10-17T07:13:41;16.10;99.90
41630;DHT22;27322;49.488;8.480;2022-10-17T07:16:07;16.00;99.90
41630;DHT22;27322;49.488;8.480;2022-10-17T07:18:33;15.90;99.90
41630;DHT22;27322;49.488;8.480;2022-10-17T07:20:59;15.90;99.90
41630;DHT22;27322;49.488;8.480;2022-10-17T07:23:25;15.90;99.90
41630;DHT22;27322;49.488;8.480;2022-10-17T07:25:50;15.90;99.90
41630;DHT22;27322;49.488;8.480;2022-10-17T07:28:16;15.80;99.90
41630;DHT22;27322;49.488;8.480;2022-10-17T07:30:42;15.80;99.90
41630;DHT22;27322;49.488;8.480;2022-10-17T07:33:07;15.80;99.90
41630;DHT22;27322;49.488;8.480;2022-10-17T07:35:33;15.80;99.90
41630;DHT22;27322;49.488;8.480;2022-10-17T07:37:59;15.90;99.90
41630;DHT22;27322;49.488;8.480;2022-10-17T07:40:24;15.90;99.90
41630;DHT22;27322;49.488;8.480;2022-10-17T07:42:50;16.00;99.90
41630;DHT22;27322;49.488;8.480;2022-10-17T07:45:15;16.00;99.90
41630;DHT22;27322;49.488;8.480;2022-10-17T07:47:41;16.00;99.90
41630;DHT22;27322;49.488;8.480;2022-10-17T07:50:07;16.10;99.90
41630;DHT22;27322;49.488;8.480;2022-10-17T07:52:33;16.10;99.90
41630;DHT22;27322;49.488;8.480;2022-10-17T07:54:59;16.10;99.90
41630;DHT22;27322;49.488;8.480;2022-10-17T07:57:24;16.10;99.90
41630;DHT22;27322;49.488;8.480;2022-10-17T07:59:50;16.20;99.90
41630;DHT22;27322;49.488;8.480;2022-10-17T08:02:24;16.20;99.90
41630;DHT22;27322;49.488;8.480;2022-10-17T08:04:51;16.30;99.90
41630;DHT22;27322;49.488;8.480;2022-10-17T08:07:17;16.40;99.90
41630;DHT22;27322;49.488;8.480;2022-10-17T08:09:44;16.50;99.90
41630;DHT22;27322;49.488;8.480;2022-10-17T08:12:10;16.60;99.90
41630;DHT22;27322;49.488;8.480;2022-10-17T08:14:36;16.60;99.90
41630;DHT22;27322;49.488;8.480;2022-10-17T08:17:03;16.60;99.90
41630;DHT22;27322;49.488;8.480;2022-10-17T08:19:29;16.70;99.90
41630;DHT22;27322;49.488;8.480;2022-10-17T08:21:54;16.70;99.90
41630;DHT22;27322;49.488;8.480;2022-10-17T08:24:20;16.70;99.90
41630;DHT22;27322;49.488;8.480;2022-10-17T08:26:45;16.70;99.90
41630;DHT22;27322;49.488;8.480;2022-10-17T08:29:12;16.70;99.90
41630;DHT22;27322;49.488;8.480;2022-10-17T08:31:38;16.80;99.90
41630;DHT22;27322;49.488;8.480;2022-10-17T08:34:04;16.90;99.90
41630;DHT22;27322;49.488;8.480;2022-10-17T08:36:29;16.90;99.90
41630;DHT22;27322;49.488;8.480;2022-10-17T08:38:55;16.90;99.90
41630;DHT22;27322;49.488;8.480;2022-10-17T08:41:42;17.00;99.90
41630;DHT22;27322;49.488;8.480;2022-10-17T08:46:56;17.10;99.90
41630;DHT22;27322;49.488;8.480;2022-10-17T08:49:36;17.20;99.90
41630;DHT22;27322;49.488;8.480;2022-10-17T08:52:09;17.20;99.90
41630;DHT22;27322;49.488;8.480;2022-10-17T08:54:44;17.30;99.90
41630;DHT22;27322;49.488;8.480;2022-10-17T08:57:13;17.40;99.90
41630;DHT22;27322;49.488;8.480;2022-10-17T08:59:40;17.50;99.90
41630;DHT22;27322;49.488;8.480;2022-10-17T09:04:59;17.60;99.90
41630;DHT22;27322;49.488;8.480;2022-10-17T09:07:55;17.60;99.90
41630;DHT22;27322;49.488;8.480;2022-10-17T09:16:17;17.90;99.90
41630;DHT22;27322;49.488;8.480;2022-10-17T09:19:00;17.90;99.90
41630;DHT22;27322;49.488;8.480;2022-10-17T09:21:41;17.90;99.90
41630;DHT22;27322;49.488;8.480;2022-10-17T09:24:15;17.90;99.90
41630;DHT22;27322;49.488;8.480;2022-10-17T09:26:44;18.00;99.90
41630;DHT22;27322;49.488;8.480;2022-10-17T09:29:20;18.10;99.90
41630;DHT22;27322;49.488;8.480;2022-10-17T09:31:57;18.10;99.90
41630;DHT22;27322;49.488;8.480;2022-10-17T09:34:27;18.20;99.90
41630;DHT22;27322;49.488;8.480;2022-10-17T09:36:53;18.10;99.90
41630;DHT22;27322;49.488;8.480;2022-10-17T09:39:22;18.10;99.90
41630;DHT22;27322;49.488;8.480;2022-10-17T09:41:52;18.10;99.90
41630;DHT22;27322;49.488;8.480;2022-10-17T09:44:19;18.10;99.90
41630;DHT22;27322;49.488;8.480;2022-10-17T09:47:11;18.10;99.90
41630;DHT22;27322;49.488;8.480;2022-10-17T09:49:41;18.20;99.90
41630;DHT22;27322;49.488;8.480;2022-10-17T09:52:32;18.20;99.90
41630;DHT22;27322;49.488;8.480;2022-10-17T09:55:04;18.30;99.90
41630;DHT22;27322;49.488;8.480;2022-10-17T09:57:57;18.30;99.90
41630;DHT22;27322;49.488;8.480;2022-10-17T10:00:26;18.30;99.90
41630;DHT22;27322;49.488;8.480;2022-10-17T10:03:08;18.40;99.90
41630;DHT22;27322;49.488;8.480;2022-10-17T10:05:33;18.50;99.90
41630;DHT22;27322;49.488;8.480;2022-10-17T10:08:14;18.50;99.90
41630;DHT22;27322;49.488;8.480;2022-10-17T10:10:41;18.60;99.90
41630;DHT22;27322;49.488;8.480;2022-10-17T10:15:47;18.70;99.90
41630;DHT22;27322;49.488;8.480;2022-10-17T10:18:34;18.70;99.90
41630;DHT22;27322;49.488;8.480;2022-10-17T10:23:30;18.80;99.90
41630;DHT22;27322;49.488;8.480;2022-10-17T10:25:58;18.90;99.90
41630;DHT22;27322;49.488;8.480;2022-10-17T10:28:28;19.00;99.90
41630;DHT22;27322;49.488;8.480;2022-10-17T10:30:57;19.10;99.90
41630;DHT22;27322;49.488;8.480;2022-10-17T10:33:26;19.10;99.90
41630;DHT22;27322;49.488;8.480;2022-10-17T10:36:04;19.10;99.90
41630;DHT22;27322;49.488;8.480;2022-10-17T10:38:32;19.20;99.90
41630;DHT22;27322;49.488;8.480;2022-10-17T10:41:06;19.20;99.90
41630;DHT22;27322;49.488;8.480;2022-10-17T10:43:48;19.20;99.90
41630;DHT22;27322;49.488;8.480;2022-10-17T10:51:16;19.50;99.90
41630;DHT22;27322;49.488;8.480;2022-10-17T10:53:50;19.60;99.90
41630;DHT22;27322;49.488;8.480;2022-10-17T10:56:19;19.60;99.90
41630;DHT22;27322;49.488;8.480;2022-10-17T11:04:33;19.80;99.90
41630;DHT22;27322;49.488;8.480;2022-10-17T11:10:02;19.80;99.90
41630;DHT22;27322;49.488;8.480;2022-10-17T11:18:24;20.00;99.90
41630;DHT22;27322;49.488;8.480;2022-10-17T11:20:55;20.00;99.90
41630;DHT22;27322;49.488;8.480;2022-10-17T11:26:57;20.10;99.90
41630;DHT22;27322;49.488;8.480;2022-10-17T11:29:30;20.10;99.90
41630;DHT22;27322;49.488;8.480;2022-10-17T11:32:00;20.10;99.90
41630;DHT22;27322;49.488;8.480;2022-10-17T11:34:31;20.10;99.90
41630;DHT22;27322;49.488;8.480;2022-10-17T11:37:04;20.10;99.90
41630;DHT22;27322;49.488;8.480;2022-10-17T11:45:18;20.00;99.90
41630;DHT22;27322;49.488;8.480;2022-10-17T11:48:01;20.00;99.90
41630;DHT22;27322;49.488;8.480;2022-10-17T11:53:21;19.90;99.90
41630;DHT22;27322;49.488;8.480;2022-10-17T11:55:48;19.90;99.90
41630;DHT22;27322;49.488;8.480;2022-10-17T12:01:16;19.90;99.90
41630;DHT22;27322;49.488;8.480;2022-10-17T12:09:36;20.10;99.90
41630;DHT22;27322;49.488;8.480;2022-10-17T12:12:03;20.10;99.90
41630;DHT22;27322;49.488;8.480;2022-10-17T12:14:40;20.10;99.90
41630;DHT22;27322;49.488;8.480;2022-10-17T12:17:34;20.20;99.90
41630;DHT22;27322;49.488;8.480;2022-10-17T12:22:47;20.30;99.90
41630;DHT22;27322;49.488;8.480;2022-10-17T12:25:47;20.30;99.90
41630;DHT22;27322;49.488;8.480;2022-10-17T12:28:39;20.30;99.90
41630;DHT22;27322;49.488;8.480;2022-10-17T12:33:31;20.40;99.90
41630;DHT22;27322;49.488;8.480;2022-10-17T12:54:44;20.50;99.90
41630;DHT22;27322;49.488;8.480;2022-10-17T13:00:19;20.60;99.90
41630;DHT22;27322;49.488;8.480;2022-10-17T13:02:47;20.60;99.90
41630;DHT22;27322;49.488;8.480;2022-10-17T13:05:18;20.60;99.90
41630;DHT22;27322;49.488;8.480;2022-10-17T13:07:47;20.50;99.90
41630;DHT22;27322;49.488;8.480;2022-10-17T13:10:25;20.60;99.90
41630;DHT22;27322;49.488;8.480;2022-10-17T13:12:55;20.60;99.90
41630;DHT22;27322;49.488;8.480;2022-10-17T13:15:23;20.60;99.90
41630;DHT22;27322;49.488;8.480;2022-10-17T13:17:59;20.60;99.90
41630;DHT22;27322;49.488;8.480;2022-10-17T13:20:27;20.50;99.90
41630;DHT22;27322;49.488;8.480;2022-10-17T13:22:54;20.60;99.90
41630;DHT22;27322;49.488;8.480;2022-10-17T13:25:21;20.50;99.90
41630;DHT22;27322;49.488;8.480;2022-10-17T13:27:48;20.50;99.90
41630;DHT22;27322;49.488;8.480;2022-10-17T13:30:30;20.50;99.90
41630;DHT22;27322;49.488;8.480;2022-10-17T13:32:57;20.60;99.90
41630;DHT22;27322;49.488;8.480;2022-10-17T13:35:27;20.60;99.90
41630;DHT22;27322;49.488;8.480;2022-10-17T13:37:54;20.60;99.90
41630;DHT22;27322;49.488;8.480;2022-10-17T13:40:25;20.60;99.90
41630;DHT22;27322;49.488;8.480;2022-10-17T13:42:53;20.60;99.90
41630;DHT22;27322;49.488;8.480;2022-10-17T13:47:51;20.50;99.90
41630;DHT22;27322;49.488;8.480;2022-10-17T13:53:15;20.60;99.90
41630;DHT22;27322;49.488;8.480;2022-10-17T13:58:19;20.60;99.90
41630;DHT22;27322;49.488;8.480;2022-10-17T14:00:45;20.70;99.90
41630;DHT22;27322;49.488;8.480;2022-10-17T14:03:16;20.70;99.90
41630;DHT22;27322;49.488;8.480;2022-10-17T14:06:07;20.70;99.90
41630;DHT22;27322;49.488;8.480;2022-10-17T14:08:36;20.70;99.90
41630;DHT22;27322;49.488;8.480;2022-10-17T14:11:13;20.70;99.90
41630;DHT22;27322;49.488;8.480;2022-10-17T14:13:40;20.70;99.90
41630;DHT22;27322;49.488;8.480;2022-10-17T14:16:06;20.60;99.90
41630;DHT22;27322;49.488;8.480;2022-10-17T14:18:35;20.60;99.90
41630;DHT22;27322;49.488;8.480;2022-10-17T14:21:05;20.60;99.90
41630;DHT22;27322;49.488;8.480;2022-10-17T14:23:43;20.60;99.90
41630;DHT22;27322;49.488;8.480;2022-10-17T14:26:27;20.70;99.90
41630;DHT22;27322;49.488;8.480;2022-10-17T14:29:05;20.60;99.90
41630;DHT22;27322;49.488;8.480;2022-10-17T14:31:33;20.60;99.90
41630;DHT22;27322;49.488;8.480;2022-10-17T14:34:01;20.60;99.90
41630;DHT22;27322;49.488;8.480;2022-10-17T14:36:33;20.50;99.90
41630;DHT22;27322;49.488;8.480;2022-10-17T14:38:59;20.50;99.90
41630;DHT22;27322;49.488;8.480;2022-10-17T14:41:31;20.40;99.90
41630;DHT22;27322;49.488;8.480;2022-10-17T14:44:07;20.40;99.90
41630;DHT22;27322;49.488;8.480;2022-10-17T14:46:43;20.40;99.90
41630;DHT22;27322;49.488;8.480;2022-10-17T14:49:17;20.40;99.90
41630;DHT22;27322;49.488;8.480;2022-10-17T14:52:08;20.40;99.90
41630;DHT22;27322;49.488;8.480;2022-10-17T14:54:34;20.40;99.90
41630;DHT22;27322;49.488;8.480;2022-10-17T14:57:07;20.40;99.90
41630;DHT22;27322;49.488;8.480;2022-10-17T14:59:38;20.40;99.90
41630;DHT22;27322;49.488;8.480;2022-10-17T15:02:04;20.30;99.90
41630;DHT22;27322;49.488;8.480;2022-10-17T15:04:29;20.30;99.90
41630;DHT22;27322;49.488;8.480;2022-10-17T15:06:55;20.30;99.90
41630;DHT22;27322;49.488;8.480;2022-10-17T15:09:21;20.30;99.90
41630;DHT22;27322;49.488;8.480;2022-10-17T15:11:48;20.30;99.90
41630;DHT22;27322;49.488;8.480;2022-10-17T15:14:13;20.30;99.90
41630;DHT22;27322;49.488;8.480;2022-10-17T15:16:39;20.30;99.90
41630;DHT22;27322;49.488;8.480;2022-10-17T15:19:04;20.30;99.90
41630;DHT22;27322;49.488;8.480;2022-10-17T15:21:30;20.40;99.90
41630;DHT22;27322;49.488;8.480;2022-10-17T15:23:56;20.40;99.90
41630;DHT22;27322;49.488;8.480;2022-10-17T15:26:29;20.30;99.90
41630;DHT22;27322;49.488;8.480;2022-10-17T15:28:54;20.30;99.90
41630;DHT22;27322;49.488;8.480;2022-10-17T15:31:22;20.30;99.90
41630;DHT22;27322;49.488;8.480;2022-10-17T15:33:49;20.30;99.90
41630;DHT22;27322;49.488;8.480;2022-10-17T15:36:27;20.30;99.90
41630;DHT22;27322;49.488;8.480;2022-10-17T15:38:56;20.30;99.90
41630;DHT22;27322;49.488;8.480;2022-10-17T15:41:24;20.30;99.90
41630;DHT22;27322;49.488;8.480;2022-10-17T15:43:50;20.30;99.90
41630;DHT22;27322;49.488;8.480;2022-10-17T15:46:23;20.30;99.90
41630;DHT22;27322;49.488;8.480;2022-10-17T15:48:50;20.30;99.90
41630;DHT22;27322;49.488;8.480;2022-10-17T15:51:18;20.30;99.90
41630;DHT22;27322;49.488;8.480;2022-10-17T15:53:44;20.40;99.90
41630;DHT22;27322;49.488;8.480;2022-10-17T15:56:22;20.40;99.90
41630;DHT22;27322;49.488;8.480;2022-10-17T15:58:49;20.30;99.90
41630;DHT22;27322;49.488;8.480;2022-10-17T16:01:23;20.30;99.90
41630;DHT22;27322;49.488;8.480;2022-10-17T16:03:49;20.20;99.90
41630;DHT22;27322;49.488;8.480;2022-10-17T16:06:16;20.20;99.90
41630;DHT22;27322;49.488;8.480;2022-10-17T16:08:43;20.20;99.90
41630;DHT22;27322;49.488;8.480;2022-10-17T16:14:15;20.20;99.90
41630;DHT22;27322;49.488;8.480;2022-10-17T16:16:42;20.20;99.90
41630;DHT22;27322;49.488;8.480;2022-10-17T16:19:08;20.20;99.90
41630;DHT22;27322;49.488;8.480;2022-10-17T16:21:36;20.20;99.90
41630;DHT22;27322;49.488;8.480;2022-10-17T16:24:03;20.10;99.90
41630;DHT22;27322;49.488;8.480;2022-10-17T16:26:28;20.10;99.90
41630;DHT22;27322;49.488;8.480;2022-10-17T16:28:54;20.10;99.90
41630;DHT22;27322;49.488;8.480;2022-10-17T16:31:27;20.10;99.90
41630;DHT22;27322;49.488;8.480;2022-10-17T16:33:56;20.00;99.90
41630;DHT22;27322;49.488;8.480;2022-10-17T16:36:22;20.00;99.90
41630;DHT22;27322;49.488;8.480;2022-10-17T16:38:48;20.00;99.90
41630;DHT22;27322;49.488;8.480;2022-10-17T16:41:35;20.00;99.90
41630;DHT22;27322;49.488;8.480;2022-10-17T16:44:03;20.00;99.90
41630;DHT22;27322;49.488;8.480;2022-10-17T16:46:30;19.90;99.90
41630;DHT22;27322;49.488;8.480;2022-10-17T16:48:59;19.90;99.90
41630;DHT22;27322;49.488;8.480;2022-10-17T16:51:25;20.00;99.90
41630;DHT22;27322;49.488;8.480;2022-10-17T16:53:52;19.90;99.90
41630;DHT22;27322;49.488;8.480;2022-10-17T16:56:20;19.90;99.90
41630;DHT22;27322;49.488;8.480;2022-10-17T16:58:47;19.90;99.90
41630;DHT22;27322;49.488;8.480;2022-10-17T17:01:16;20.00;99.90
41630;DHT22;27322;49.488;8.480;2022-10-17T17:03:43;19.90;99.90
41630;DHT22;27322;49.488;8.480;2022-10-17T17:06:14;19.90;99.90
41630;DHT22;27322;49.488;8.480;2022-10-17T17:08:41;19.90;99.90
41630;DHT22;27322;49.488;8.480;2022-10-17T17:11:08;19.90;99.90
41630;DHT22;27322;49.488;8.480;2022-10-17T17:13:34;19.90;99.90
41630;DHT22;27322;49.488;8.480;2022-10-17T17:16:12;19.80;99.90
41630;DHT22;27322;49.488;8.480;2022-10-17T17:18:38;19.80;99.90
41630;DHT22;27322;49.488;8.480;2022-10-17T17:21:05;19.70;99.90
41630;DHT22;27322;49.488;8.480;2022-10-17T17:23:36;19.60;99.90
41630;DHT22;27322;49.488;8.480;2022-10-17T17:26:07;19.50;99.90
41630;DHT22;27322;49.488;8.480;2022-10-17T17:28:34;19.30;99.90
41630;DHT22;27322;49.488;8.480;2022-10-17T17:31:00;19.30;99.90
41630;DHT22;27322;49.488;8.480;2022-10-17T17:33:26;19.20;99.90
41630;DHT22;27322;49.488;8.480;2022-10-17T17:35:57;19.20;99.90
41630;DHT22;27322;49.488;8.480;2022-10-17T17:38:24;19.20;99.90
41630;DHT22;27322;49.488;8.480;2022-10-17T17:40:50;19.20;99.90
41630;DHT22;27322;49.488;8.480;2022-10-17T17:43:17;19.20;99.90
41630;DHT22;27322;49.488;8.480;2022-10-17T17:45:42;19.20;99.90
41630;DHT22;27322;49.488;8.480;2022-10-17T17:48:08;19.20;99.90
41630;DHT22;27322;49.488;8.480;2022-10-17T17:50:38;19.20;99.90
41630;DHT22;27322;49.488;8.480;2022-10-17T17:53:05;19.20;99.90
41630;DHT22;27322;49.488;8.480;2022-10-17T17:55:32;19.10;99.90
41630;DHT22;27322;49.488;8.480;2022-10-17T17:57:57;19.10;99.90
41630;DHT22;27322;49.488;8.480;2022-10-17T18:00:23;19.00;99.90
41630;DHT22;27322;49.488;8.480;2022-10-17T18:02:49;19.00;99.90